Time;durP1;ratioP1;P1;durP2;ratioP2;P2;SDS_P1;SDS_P2;PMS_P1;PMS_P2;Temp;Humidity;BMP_temperature;BMP_pressure;BME280_temperature;BME280_humidity;BME280_pressure;Samples;Min_cycle;Max_cycle;Signal;HPM_P1;HPM_P2
2022/04/15 00:00:08;;;;;;;6.10;1.30;;;20.90;99.90;;;;;;5069816;28;20186;-69
2022/04/15 00:02:39;;;;;;;2.80;1.20;;;20.90;99.90;;;;;;5069248;28;20289;-70
2022/04/15 00:07:53;;;;;;;2.13;0.85;;;21.10;99.90;;;;;;5072125;28;20631;-69
2022/04/15 00:10:25;;;;;;;3.85;0.90;;;21.20;99.90;;;;;;5063526;28;20185;-69
2022/04/15 00:12:58;;;;;;;2.80;0.93;;;21.30;99.90;;;;;;5071273;28;20273;-69
2022/04/15 00:15:31;;;;;;;3.17;0.70;;;21.30;99.90;;;;;;5067179;28;20189;-69
2022/04/15 00:18:01;;;;;;;2.10;0.77;;;21.40;99.90;;;;;;5072421;28;20189;-69
2022/04/15 00:20:32;;;;;;;2.75;0.70;;;21.60;99.90;;;;;;5070431;28;20185;-69
2022/04/15 00:23:03;;;;;;;2.97;0.82;;;21.70;99.90;;;;;;5071978;28;20185;-69
2022/04/15 00:25:34;;;;;;;2.65;1.23;;;21.70;99.90;;;;;;5074842;28;20258;-69
2022/04/15 00:28:04;;;;;;;2.15;0.73;;;21.80;99.90;;;;;;5074219;28;20189;-69
2022/04/15 00:30:37;;;;;;;2.00;0.82;;;21.80;99.90;;;;;;5074697;28;20197;-69
2022/04/15 00:33:08;;;;;;;2.03;0.80;;;21.90;99.90;;;;;;5074801;28;20189;-68
2022/04/15 00:35:38;;;;;;;3.72;1.20;;;21.90;99.90;;;;;;5074662;28;20199;-70
2022/04/15 00:38:09;;;;;;;2.70;0.90;;;22.00;99.90;;;;;;5074173;28;20663;-73
2022/04/15 00:40:40;;;;;;;2.88;1.00;;;22.10;99.90;;;;;;5072983;28;20184;-73
2022/04/15 00:43:10;;;;;;;3.03;0.80;;;22.20;99.90;;;;;;5074603;28;20193;-69
2022/04/15 00:45:43;;;;;;;2.15;0.70;;;22.20;99.90;;;;;;5074551;28;20219;-70
2022/04/15 00:48:16;;;;;;;2.35;0.80;;;22.30;99.90;;;;;;5074099;28;20235;-69
2022/04/15 00:50:47;;;;;;;1.70;0.70;;;22.30;99.90;;;;;;5074447;28;20181;-69
2022/04/15 00:53:21;;;;;;;4.03;0.90;;;22.30;99.90;;;;;;5074062;28;20286;-70
2022/04/15 00:55:57;;;;;;;1.90;0.90;;;22.40;99.90;;;;;;5073052;28;20196;-69
2022/04/15 00:58:29;;;;;;;1.55;0.77;;;22.50;99.90;;;;;;5074242;28;20208;-69
2022/04/15 01:01:02;;;;;;;4.65;0.82;;;22.60;99.90;;;;;;5074452;28;20231;-70
2022/04/15 01:03:34;;;;;;;4.03;0.73;;;22.60;99.90;;;;;;5074097;28;20189;-69
2022/04/15 01:06:10;;;;;;;2.40;0.73;;;22.70;99.90;;;;;;5073852;28;20278;-70
2022/04/15 01:08:43;;;;;;;1.92;0.80;;;22.80;99.90;;;;;;5066790;28;20721;-70
2022/04/15 01:11:20;;;;;;;5.10;0.90;;;22.90;99.90;;;;;;5072990;28;20204;-69
2022/04/15 01:13:51;;;;;;;2.20;0.90;;;22.90;99.90;;;;;;5067603;28;20185;-69
2022/04/15 01:16:25;;;;;;;1.88;0.60;;;23.00;99.90;;;;;;5073827;28;20266;-73
2022/04/15 01:18:56;;;;;;;2.47;0.80;;;23.00;99.90;;;;;;5073999;28;20182;-70
2022/04/15 01:21:30;;;;;;;2.47;0.90;;;23.10;99.90;;;;;;5073238;28;20194;-69
2022/04/15 01:24:02;;;;;;;3.85;0.70;;;23.10;99.90;;;;;;5073180;28;20181;-70
2022/04/15 01:26:33;;;;;;;2.55;0.82;;;23.20;99.90;;;;;;5072731;28;20264;-71
2022/04/15 01:29:05;;;;;;;1.90;0.80;;;23.30;99.90;;;;;;5073306;28;20189;-71
2022/04/15 01:31:36;;;;;;;1.38;0.63;;;23.30;99.90;;;;;;5072477;28;20181;-75
2022/04/15 01:34:07;;;;;;;3.70;0.88;;;23.30;99.90;;;;;;5073065;28;20603;-71
2022/04/15 01:36:37;;;;;;;2.38;0.60;;;23.40;99.90;;;;;;5072680;28;20196;-68
2022/04/15 01:39:10;;;;;;;2.10;0.80;;;23.50;99.90;;;;;;5073197;28;20203;-70
2022/04/15 01:41:42;;;;;;;2.22;0.70;;;23.60;99.90;;;;;;5071934;28;20247;-69
2022/04/15 01:44:15;;;;;;;2.13;0.70;;;23.50;99.90;;;;;;5067841;28;20193;-69
2022/04/15 01:46:46;;;;;;;1.63;0.60;;;23.50;99.90;;;;;;5073328;28;20574;-69
2022/04/15 01:49:16;;;;;;;2.05;0.70;;;23.60;99.90;;;;;;5071605;28;20692;-74
2022/04/15 01:51:47;;;;;;;2.97;0.80;;;23.70;99.90;;;;;;5073195;28;20201;-74
2022/04/15 01:54:19;;;;;;;3.22;0.65;;;23.70;99.90;;;;;;5073100;28;20274;-69
2022/04/15 01:56:50;;;;;;;2.88;0.50;;;23.70;99.90;;;;;;5066138;28;20218;-71
2022/04/15 01:59:21;;;;;;;1.83;0.68;;;23.80;99.90;;;;;;5072737;28;20189;-82
2022/04/15 02:01:54;;;;;;;3.50;1.10;;;23.80;99.90;;;;;;5069423;28;20205;-82
2022/04/15 02:04:25;;;;;;;1.95;0.80;;;23.80;99.90;;;;;;5071289;28;20620;-87
2022/04/15 02:06:56;;;;;;;2.72;0.63;;;23.90;99.90;;;;;;5072482;28;20193;-69
2022/04/15 02:09:29;;;;;;;3.15;0.60;;;24.00;99.90;;;;;;5071950;28;20216;-69
2022/04/15 02:11:59;;;;;;;1.23;0.50;;;24.00;99.90;;;;;;5072301;28;20193;-69
2022/04/15 02:14:30;;;;;;;1.77;0.70;;;24.00;99.90;;;;;;5072781;28;20270;-77
2022/04/15 02:17:01;;;;;;;2.42;0.63;;;24.00;99.90;;;;;;5071719;28;20652;-70
2022/04/15 02:19:31;;;;;;;2.28;0.60;;;24.00;99.90;;;;;;5072569;28;20196;-69
2022/04/15 02:22:02;;;;;;;2.95;0.90;;;24.10;99.90;;;;;;5072705;28;20197;-71
2022/04/15 02:24:34;;;;;;;36.30;24.17;;;24.20;99.90;;;;;;5071975;28;20196;-68
2022/04/15 02:27:05;;;;;;;19.45;12.88;;;24.10;99.90;;;;;;5071701;28;20781;-69
2022/04/15 02:29:36;;;;;;;33.10;21.75;;;24.10;99.90;;;;;;5071535;28;20620;-69
2022/04/15 02:32:07;;;;;;;14.10;7.88;;;24.00;99.90;;;;;;5071074;28;20492;-69
2022/04/15 02:34:38;;;;;;;10.45;7.00;;;24.00;99.90;;;;;;5072389;28;20181;-69
2022/04/15 02:37:08;;;;;;;5.57;3.25;;;24.00;99.90;;;;;;5071682;28;20181;-70
2022/04/15 02:39:41;;;;;;;2.40;1.23;;;24.00;99.90;;;;;;5072663;28;20188;-69
2022/04/15 02:42:12;;;;;;;4.03;1.63;;;24.00;99.90;;;;;;5072367;28;20181;-73
2022/04/15 02:44:43;;;;;;;1.02;0.63;;;24.20;99.90;;;;;;5067745;28;20208;-69
2022/04/15 02:47:13;;;;;;;2.88;0.75;;;24.30;99.90;;;;;;5072581;28;20238;-76
2022/04/15 02:49:44;;;;;;;1.63;0.60;;;24.40;99.90;;;;;;5071479;28;20220;-70
2022/04/15 02:52:15;;;;;;;2.78;0.90;;;24.30;99.90;;;;;;5072217;28;20644;-69
2022/04/15 02:54:48;;;;;;;1.40;0.65;;;24.30;99.90;;;;;;5072057;28;20761;-69
2022/04/15 02:57:18;;;;;;;3.05;0.60;;;24.30;99.90;;;;;;5071234;28;20661;-69
2022/04/15 02:59:49;;;;;;;2.53;0.63;;;24.30;99.90;;;;;;5071822;28;20181;-69
2022/04/15 03:02:19;;;;;;;2.03;0.57;;;24.30;99.90;;;;;;5072171;28;20251;-70
2022/04/15 03:04:50;;;;;;;1.23;0.50;;;24.40;99.90;;;;;;5071656;28;20722;-70
2022/04/15 03:07:21;;;;;;;1.42;0.60;;;24.30;99.90;;;;;;5072229;28;20196;-69
2022/04/15 03:09:53;;;;;;;2.33;0.40;;;24.30;99.90;;;;;;5072455;28;20694;-69
2022/04/15 03:12:24;;;;;;;1.38;0.40;;;24.30;99.90;;;;;;5071044;28;20181;-69
2022/04/15 03:14:55;;;;;;;2.47;0.50;;;24.30;99.90;;;;;;5066704;28;20182;-69
2022/04/15 03:17:27;;;;;;;0.85;0.43;;;24.30;99.90;;;;;;5071799;28;20275;-69
2022/04/15 03:19:58;;;;;;;1.63;0.40;;;24.30;99.90;;;;;;5067069;28;20189;-70
2022/04/15 03:22:28;;;;;;;0.70;0.30;;;24.40;99.90;;;;;;5072337;28;20594;-71
2022/04/15 03:25:01;;;;;;;1.10;0.40;;;24.40;99.90;;;;;;5074447;28;20189;-74
2022/04/15 03:27:32;;;;;;;2.50;0.40;;;24.50;99.90;;;;;;5075563;28;20188;-71
2022/04/15 03:30:03;;;;;;;1.35;0.50;;;24.50;99.90;;;;;;5073516;28;20196;-69
2022/04/15 03:32:34;;;;;;;1.60;0.40;;;24.50;99.90;;;;;;5074931;28;20619;-69
2022/04/15 03:35:04;;;;;;;0.63;0.28;;;24.50;99.90;;;;;;5073654;28;20559;-70
2022/04/15 03:37:35;;;;;;;0.85;0.40;;;24.60;99.90;;;;;;5075678;28;20185;-68
2022/04/15 03:40:08;;;;;;;1.33;0.40;;;24.40;99.90;;;;;;5074700;28;20185;-69
2022/04/15 03:42:47;;;;;;;1.52;0.40;;;24.40;99.90;;;;;;5075822;28;20185;-70
2022/04/15 03:45:19;;;;;;;2.58;0.57;;;24.40;99.90;;;;;;5071237;28;20254;-69
2022/04/15 03:47:49;;;;;;;1.05;0.50;;;24.30;99.90;;;;;;5072987;28;20189;-69
2022/04/15 03:50:20;;;;;;;0.82;0.30;;;24.30;99.90;;;;;;5071516;28;20185;-70
2022/04/15 03:52:51;;;;;;;1.67;0.40;;;24.30;99.90;;;;;;5074976;28;20229;-68
2022/04/15 03:55:26;;;;;;;0.95;0.47;;;24.30;99.90;;;;;;5075146;28;20185;-69
2022/04/15 03:57:57;;;;;;;0.52;0.32;;;24.40;99.90;;;;;;5075226;28;20639;-70
2022/04/15 04:00:28;;;;;;;2.50;0.40;;;24.40;99.90;;;;;;5074565;28;20663;-69
2022/04/15 04:02:59;;;;;;;0.75;0.45;;;24.50;99.90;;;;;;5074742;28;20193;-69
2022/04/15 04:05:29;;;;;;;1.15;0.40;;;24.40;99.90;;;;;;5074975;28;20302;-69
2022/04/15 04:08:00;;;;;;;3.17;0.60;;;24.40;99.90;;;;;;5075213;28;20582;-69
2022/04/15 04:10:33;;;;;;;1.30;0.50;;;24.40;99.90;;;;;;5073612;28;20234;-69
2022/04/15 04:13:04;;;;;;;1.45;0.55;;;24.50;99.90;;;;;;5075022;28;20185;-69
2022/04/15 04:15:35;;;;;;;2.83;0.50;;;24.40;99.90;;;;;;5074092;28;20284;-69
2022/04/15 04:18:06;;;;;;;1.58;0.40;;;24.30;99.90;;;;;;5073501;28;20212;-69
2022/04/15 04:20:36;;;;;;;1.83;0.50;;;24.30;99.90;;;;;;5074804;28;20197;-69
2022/04/15 04:23:07;;;;;;;1.73;0.45;;;24.30;99.90;;;;;;5074760;28;20189;-69
2022/04/15 04:25:39;;;;;;;4.57;0.73;;;24.30;99.90;;;;;;5074027;28;20221;-70
2022/04/15 04:28:11;;;;;;;1.98;0.55;;;24.30;99.90;;;;;;5074989;28;20181;-72
2022/04/15 04:30:41;;;;;;;7.18;0.82;;;24.30;99.90;;;;;;5074119;28;20189;-69
2022/04/15 04:33:12;;;;;;;1.98;0.50;;;24.20;99.90;;;;;;5073805;28;20200;-70
2022/04/15 04:35:42;;;;;;;2.67;0.85;;;24.30;99.90;;;;;;5073355;28;20234;-69
2022/04/15 04:38:13;;;;;;;3.20;0.40;;;24.00;99.90;;;;;;5073844;28;20234;-69
2022/04/15 04:40:46;;;;;;;5.63;0.90;;;23.80;99.90;;;;;;5074523;28;20192;-70
2022/04/15 04:43:17;;;;;;;3.10;0.60;;;23.90;99.90;;;;;;5068472;28;20600;-71
2022/04/15 04:45:47;;;;;;;4.18;0.65;;;23.90;99.90;;;;;;5072745;28;20213;-69
2022/04/15 04:48:18;;;;;;;1.98;0.50;;;23.90;99.90;;;;;;5066984;28;20217;-69
2022/04/15 04:50:50;;;;;;;2.22;0.80;;;23.80;99.90;;;;;;5073301;28;20181;-69
2022/04/15 04:53:21;;;;;;;2.53;0.60;;;23.90;99.90;;;;;;5073425;28;20296;-70
2022/04/15 04:55:54;;;;;;;1.88;0.60;;;23.90;99.90;;;;;;5069879;28;20193;-70
2022/04/15 04:58:24;;;;;;;1.75;0.50;;;23.80;99.90;;;;;;5073027;28;20213;-70
2022/04/15 05:00:55;;;;;;;3.90;0.80;;;23.80;99.90;;;;;;5073773;28;20182;-69
2022/04/15 05:03:25;;;;;;;1.50;0.60;;;23.70;99.90;;;;;;5074172;28;20193;-70
2022/04/15 05:05:56;;;;;;;2.50;0.50;;;23.60;99.90;;;;;;5072589;28;20205;-69
2022/04/15 05:08:26;;;;;;;2.58;0.50;;;23.40;99.90;;;;;;5072788;28;20254;-69
2022/04/15 05:10:59;;;;;;;2.15;0.50;;;23.10;99.90;;;;;;5073140;28;20185;-70
2022/04/15 05:13:29;;;;;;;2.58;0.63;;;22.90;99.90;;;;;;5073706;28;20194;-69
2022/04/15 05:16:00;;;;;;;3.15;0.70;;;22.80;99.90;;;;;;5070437;28;20239;-69
2022/04/15 05:18:30;;;;;;;2.50;0.55;;;22.70;99.90;;;;;;5073418;28;20659;-70
2022/04/15 05:21:01;;;;;;;3.50;0.80;;;22.60;99.90;;;;;;5061492;28;20189;-70
2022/04/15 05:23:32;;;;;;;2.78;0.60;;;22.50;99.90;;;;;;5068137;28;20193;-69
2022/04/15 05:26:04;;;;;;;2.10;0.90;;;22.50;99.90;;;;;;5073129;28;20217;-70
2022/04/15 05:28:36;;;;;;;4.35;0.77;;;22.40;99.90;;;;;;5073150;28;20189;-69
2022/04/15 05:31:07;;;;;;;2.30;0.65;;;22.40;99.90;;;;;;5073049;28;20276;-69
2022/04/15 05:33:37;;;;;;;2.17;0.60;;;22.40;99.90;;;;;;5073102;28;20193;-71
2022/04/15 05:36:08;;;;;;;4.97;0.82;;;22.50;99.90;;;;;;5073418;28;20230;-69
2022/04/15 05:38:39;;;;;;;2.42;0.70;;;22.60;99.90;;;;;;5073561;28;20592;-70
2022/04/15 05:41:14;;;;;;;2.60;0.57;;;22.70;99.90;;;;;;5064482;28;20181;-69
2022/04/15 05:43:46;;;;;;;2.78;0.40;;;22.80;99.90;;;;;;5071833;28;20267;-73
2022/04/15 05:46:17;;;;;;;2.00;0.50;;;22.80;99.90;;;;;;5071735;28;20219;-70
2022/04/15 05:48:47;;;;;;;2.05;0.40;;;22.80;99.90;;;;;;5072125;28;20341;-71
2022/04/15 05:51:19;;;;;;;2.65;0.70;;;22.80;99.90;;;;;;5072274;28;20189;-70
2022/04/15 05:53:49;;;;;;;2.00;0.63;;;22.80;99.90;;;;;;5072383;28;20283;-70
2022/04/15 05:56:22;;;;;;;2.45;0.80;;;22.80;99.90;;;;;;5072619;28;20193;-70
2022/04/15 05:58:52;;;;;;;1.33;0.45;;;22.80;99.90;;;;;;5070778;28;20235;-70
2022/04/15 06:01:23;;;;;;;3.83;0.50;;;22.80;99.90;;;;;;5072734;28;20245;-70
2022/04/15 06:03:53;;;;;;;1.90;0.50;;;22.70;99.90;;;;;;5071987;28;20576;-70
2022/04/15 06:06:24;;;;;;;2.20;0.50;;;22.50;99.90;;;;;;5071951;28;20209;-71
2022/04/15 06:08:55;;;;;;;2.97;0.57;;;22.30;99.90;;;;;;5073094;28;20246;-70
2022/04/15 06:11:27;;;;;;;3.63;0.93;;;22.20;99.90;;;;;;5072808;28;20185;-70
2022/04/15 06:14:03;;;;;;;4.40;0.60;;;22.10;99.90;;;;;;5072566;28;20189;-72
2022/04/15 06:16:37;;;;;;;1.88;0.60;;;22.10;99.90;;;;;;5072756;28;20223;-70
2022/04/15 06:19:07;;;;;;;1.45;0.57;;;22.00;99.90;;;;;;5065105;28;20549;-70
2022/04/15 06:21:38;;;;;;;2.80;0.60;;;21.90;99.90;;;;;;5070883;28;20197;-70
2022/04/15 06:24:10;;;;;;;3.47;0.55;;;21.80;99.90;;;;;;5065996;28;20193;-70
2022/04/15 06:26:42;;;;;;;3.00;0.70;;;21.80;99.90;;;;;;5067137;28;21135;-70
2022/04/15 06:29:13;;;;;;;3.75;0.60;;;21.80;99.90;;;;;;5070077;28;20185;-70
2022/04/15 06:31:44;;;;;;;2.67;0.60;;;21.70;99.90;;;;;;5070727;28;20189;-70
2022/04/15 06:34:15;;;;;;;3.58;0.60;;;21.70;99.90;;;;;;5070698;28;20193;-82
2022/04/15 06:36:45;;;;;;;3.88;0.60;;;21.60;99.90;;;;;;5067209;28;20584;-69
2022/04/15 06:39:16;;;;;;;2.55;0.70;;;21.50;99.90;;;;;;5068011;28;20239;-70
2022/04/15 06:41:49;;;;;;;2.45;0.55;;;21.50;99.90;;;;;;5067412;28;20212;-71
2022/04/15 06:44:19;;;;;;;1.50;0.40;;;21.50;99.90;;;;;;5069954;28;20255;-71
2022/04/15 06:46:50;;;;;;;3.22;0.40;;;21.40;99.90;;;;;;5067439;28;20212;-71
2022/04/15 06:49:20;;;;;;;0.90;0.40;;;21.40;99.90;;;;;;5068186;28;20228;-74
2022/04/15 06:51:51;;;;;;;3.35;0.40;;;21.30;99.90;;;;;;5068101;28;20185;-69
2022/04/15 06:54:21;;;;;;;2.97;0.50;;;21.30;99.90;;;;;;5071998;28;20224;-71
2022/04/15 06:56:55;;;;;;;2.22;0.40;;;21.30;99.90;;;;;;5072279;28;20580;-70
2022/04/15 06:59:25;;;;;;;2.45;0.50;;;21.30;99.90;;;;;;5068048;28;20235;-70
2022/04/15 07:01:56;;;;;;;0.73;0.40;;;21.20;99.90;;;;;;5073285;28;20185;-69
2022/04/15 07:04:27;;;;;;;2.35;0.60;;;21.20;99.90;;;;;;5073218;28;20603;-70
2022/04/15 07:06:58;;;;;;;2.00;0.50;;;21.10;99.90;;;;;;5068965;28;20675;-69
2022/04/15 07:09:28;;;;;;;2.40;0.43;;;21.10;99.90;;;;;;5072329;28;20192;-70
2022/04/15 07:12:01;;;;;;;5.82;0.70;;;21.10;99.90;;;;;;5069960;28;20185;-70
2022/04/15 07:14:33;;;;;;;1.80;0.45;;;21.00;99.90;;;;;;5070113;28;20644;-69
2022/04/15 07:17:06;;;;;;;3.22;0.52;;;21.00;99.90;;;;;;5065850;28;20186;-70
2022/04/15 07:19:37;;;;;;;1.52;0.55;;;21.00;99.90;;;;;;5071226;28;20254;-70
2022/04/15 07:22:07;;;;;;;2.80;0.60;;;21.00;99.90;;;;;;5071791;28;20189;-70
2022/04/15 07:24:38;;;;;;;23.42;14.40;;;20.90;99.90;;;;;;5069746;28;20511;-70
2022/04/15 07:27:11;;;;;;;11.07;5.93;;;20.90;99.90;;;;;;5074770;28;20436;-70
2022/04/15 07:29:42;;;;;;;4.20;1.60;;;20.90;99.90;;;;;;5072452;28;20240;-70
2022/04/15 07:32:13;;;;;;;2.13;0.90;;;20.80;99.90;;;;;;5074392;28;20189;-70
2022/04/15 07:34:44;;;;;;;1.08;0.60;;;20.80;99.90;;;;;;5072156;28;20190;-68
2022/04/15 07:37:14;;;;;;;2.40;0.68;;;20.70;99.90;;;;;;5071585;28;20193;-69
2022/04/15 07:39:45;;;;;;;1.85;0.50;;;20.70;99.90;;;;;;5071359;28;20645;-69
2022/04/15 07:42:18;;;;;;;1.38;0.60;;;20.70;99.90;;;;;;5075859;28;20189;-69
2022/04/15 07:44:48;;;;;;;2.92;0.65;;;20.60;99.90;;;;;;5069600;28;20699;-70
2022/04/15 07:47:19;;;;;;;2.35;0.73;;;20.60;99.90;;;;;;5073821;28;20278;-70
2022/04/15 07:49:50;;;;;;;4.15;0.95;;;20.50;99.90;;;;;;5071266;28;20252;-70
2022/04/15 07:52:22;;;;;;;3.40;0.95;;;20.50;99.90;;;;;;5071271;28;20262;-72
2022/04/15 07:54:52;;;;;;;2.33;1.17;;;20.40;99.90;;;;;;5072701;28;20565;-71
2022/04/15 07:57:27;;;;;;;3.05;1.17;;;20.40;99.90;;;;;;5069704;28;20181;-71
2022/04/15 07:59:58;;;;;;;3.85;0.80;;;20.40;99.90;;;;;;5073899;28;20263;-71
2022/04/15 08:02:29;;;;;;;3.75;0.90;;;20.40;99.90;;;;;;5067510;28;20185;-71
2022/04/15 08:05:00;;;;;;;2.10;0.77;;;20.30;99.90;;;;;;5070963;28;20189;-72
2022/04/15 08:07:30;;;;;;;3.38;0.82;;;20.20;99.90;;;;;;5074600;28;20221;-72
2022/04/15 08:10:01;;;;;;;2.30;0.80;;;20.20;99.90;;;;;;5070430;28;20665;-70
2022/04/15 08:12:33;;;;;;;1.83;0.80;;;20.20;99.90;;;;;;5071597;28;20648;-71
2022/04/15 08:15:04;;;;;;;2.35;0.70;;;20.10;99.90;;;;;;5067339;28;20182;-70
2022/04/15 08:17:35;;;;;;;1.52;0.73;;;20.10;99.90;;;;;;5074777;28;20189;-71
2022/04/15 08:20:06;;;;;;;1.95;0.73;;;20.10;99.90;;;;;;5069469;28;20201;-71
2022/04/15 08:22:36;;;;;;;2.20;0.52;;;20.10;99.90;;;;;;5072865;28;20185;-71
2022/04/15 08:25:08;;;;;;;2.97;0.70;;;20.10;99.90;;;;;;5074522;28;20189;-70
2022/04/15 08:27:40;;;;;;;5.72;0.73;;;20.00;99.90;;;;;;5070855;28;20353;-71
2022/04/15 08:30:13;;;;;;;4.22;0.60;;;20.00;99.90;;;;;;5074144;28;20282;-75
2022/04/15 08:32:43;;;;;;;3.22;0.75;;;20.00;99.90;;;;;;5070216;28;20204;-72
2022/04/15 08:35:14;;;;;;;1.85;0.68;;;20.00;99.90;;;;;;5072469;28;20196;-70
2022/04/15 08:37:45;;;;;;;3.35;0.90;;;20.00;99.90;;;;;;5070610;28;20181;-71
2022/04/15 08:40:16;;;;;;;0.90;0.60;;;19.90;99.90;;;;;;5072944;28;20201;-73
2022/04/15 08:42:48;;;;;;;3.03;0.90;;;19.90;99.90;;;;;;5071920;28;20197;-71
2022/04/15 08:45:21;;;;;;;2.85;0.88;;;19.90;99.90;;;;;;5067004;28;20196;-71
2022/04/15 08:47:52;;;;;;;4.47;0.90;;;19.90;99.90;;;;;;5069553;28;20217;-71
2022/04/15 08:50:23;;;;;;;3.78;0.80;;;19.80;99.90;;;;;;5068350;28;20189;-72
2022/04/15 08:52:57;;;;;;;4.82;0.80;;;19.80;99.90;;;;;;5071162;28;20225;-71
2022/04/15 08:55:28;;;;;;;1.25;0.82;;;19.80;99.90;;;;;;5068954;28;20237;-71
2022/04/15 08:58:01;;;;;;;1.60;0.80;;;19.80;99.90;;;;;;5070204;28;20185;-70
2022/04/15 09:00:32;;;;;;;67.15;48.88;;;19.80;99.90;;;;;;5069206;28;20189;-72
2022/04/15 09:03:03;;;;;;;47.97;35.38;;;19.80;99.90;;;;;;5068234;28;20272;-71
2022/04/15 09:05:34;;;;;;;52.40;33.20;;;19.70;99.90;;;;;;5071788;28;20188;-71
2022/04/15 09:08:10;;;;;;;46.40;33.20;;;19.60;99.90;;;;;;5071590;28;20216;-71
2022/04/15 09:10:44;;;;;;;38.20;26.52;;;19.60;99.90;;;;;;5069257;28;20185;-71
2022/04/15 09:13:28;;;;;;;30.15;19.65;;;19.60;99.90;;;;;;5073653;28;20220;-71
2022/04/15 09:16:01;;;;;;;9.25;5.82;;;19.50;99.90;;;;;;5069781;28;20220;-71
2022/04/15 09:18:37;;;;;;;5.00;3.22;;;19.50;99.90;;;;;;5065339;28;20189;-71
2022/04/15 09:21:21;;;;;;;4.75;2.55;;;19.50;99.90;;;;;;5068873;28;20268;-71
2022/04/15 09:23:54;;;;;;;5.28;3.08;;;19.40;99.90;;;;;;5073776;28;20590;-71
2022/04/15 09:26:25;;;;;;;6.18;3.00;;;19.50;99.90;;;;;;5072155;28;20653;-71
2022/04/15 09:28:58;;;;;;;3.00;1.50;;;19.40;99.90;;;;;;5073081;28;20213;-71
2022/04/15 09:31:29;;;;;;;3.90;1.35;;;19.30;99.90;;;;;;5072822;28;20182;-71
2022/04/15 09:34:01;;;;;;;2.92;1.40;;;19.40;99.90;;;;;;5073024;28;20692;-71
2022/04/15 09:36:33;;;;;;;2.90;0.98;;;19.30;99.90;;;;;;5072806;28;20197;-71
2022/04/15 09:39:10;;;;;;;2.33;0.80;;;19.40;99.90;;;;;;5072137;28;20243;-71
2022/04/15 09:41:42;;;;;;;2.00;0.90;;;19.30;99.90;;;;;;5070302;28;20610;-71
2022/04/15 09:44:16;;;;;;;4.72;1.00;;;19.30;99.90;;;;;;5073026;28;20225;-71
2022/04/15 09:46:47;;;;;;;3.60;1.08;;;19.30;99.90;;;;;;5067617;28;20181;-71
2022/04/15 09:49:18;;;;;;;3.33;1.13;;;19.40;99.90;;;;;;5069085;28;20232;-72
2022/04/15 09:51:51;;;;;;;2.35;1.10;;;19.30;99.90;;;;;;5071240;28;20249;-71
2022/04/15 09:54:26;;;;;;;3.17;1.10;;;19.30;99.90;;;;;;5068678;28;20305;-71
2022/04/15 09:56:57;;;;;;;2.38;1.25;;;19.30;99.90;;;;;;5069421;28;20185;-70
2022/04/15 09:59:31;;;;;;;2.80;1.20;;;19.30;99.90;;;;;;5069742;28;20196;-71
2022/04/15 10:02:08;;;;;;;2.20;1.20;;;19.30;99.90;;;;;;5066383;28;20189;-71
2022/04/15 10:04:39;;;;;;;2.92;1.20;;;19.30;99.90;;;;;;5072273;28;20192;-71
2022/04/15 10:07:13;;;;;;;2.85;1.20;;;19.20;99.90;;;;;;5072227;28;20213;-71
2022/04/15 10:09:46;;;;;;;4.30;1.20;;;19.20;99.90;;;;;;5071431;28;20188;-71
2022/04/15 10:12:17;;;;;;;3.00;1.30;;;19.20;99.90;;;;;;5072991;28;20193;-71
2022/04/15 10:14:51;;;;;;;2.50;1.10;;;19.10;99.90;;;;;;5070932;28;20242;-71
2022/04/15 10:17:24;;;;;;;4.35;1.20;;;19.10;99.90;;;;;;5072768;28;20197;-71
2022/04/15 10:19:56;;;;;;;1.88;1.15;;;19.10;99.90;;;;;;5072323;28;20192;-71
2022/04/15 10:22:27;;;;;;;3.65;1.30;;;19.00;99.90;;;;;;5072312;28;20208;-72
2022/04/15 10:24:58;;;;;;;1.63;0.90;;;19.00;99.90;;;;;;5072685;28;20238;-71
2022/04/15 10:27:30;;;;;;;1.98;1.08;;;18.90;99.90;;;;;;5072394;28;20205;-71
2022/04/15 10:30:18;;;;;;;3.90;0.82;;;18.90;99.90;;;;;;5071982;28;20935;-71
2022/04/15 10:32:53;;;;;;;2.92;0.80;;;18.80;99.90;;;;;;5071832;28;20193;-71
2022/04/15 10:35:26;;;;;;;5.18;1.38;;;18.80;99.90;;;;;;5068786;28;20196;-70
2022/04/15 10:38:03;;;;;;;4.78;0.80;;;18.80;99.90;;;;;;5072348;28;20567;-71
2022/04/15 10:40:35;;;;;;;1.70;0.98;;;18.80;99.90;;;;;;5072894;28;20189;-71
2022/04/15 10:43:22;;;;;;;3.05;1.20;;;18.80;99.90;;;;;;5071748;28;20193;-71
2022/04/15 10:46:13;;;;;;;2.63;1.40;;;18.70;99.90;;;;;;5071108;28;20188;-71
2022/04/15 10:48:44;;;;;;;2.75;1.27;;;18.70;99.90;;;;;;5068397;28;20629;-71
2022/04/15 10:51:27;;;;;;;4.10;1.20;;;18.70;99.90;;;;;;5064124;28;20251;-71
2022/04/15 10:53:58;;;;;;;2.80;1.38;;;18.70;99.90;;;;;;5069637;28;20220;-71
2022/04/15 10:56:28;;;;;;;2.28;0.98;;;18.70;99.90;;;;;;5072432;28;20190;-71
2022/04/15 11:02:03;;;;;;;1.83;0.82;;;18.70;99.90;;;;;;5072235;28;20382;-71
2022/04/15 11:04:38;;;;;;;3.75;1.00;;;18.70;99.90;;;;;;5064513;28;20185;-71
2022/04/15 11:07:26;;;;;;;2.80;0.90;;;18.70;99.90;;;;;;5070516;28;20185;-76
2022/04/15 11:10:01;;;;;;;1.63;0.73;;;18.70;99.90;;;;;;5071896;28;20185;-71
2022/04/15 11:12:44;;;;;;;3.05;0.85;;;18.70;99.90;;;;;;5066020;28;20192;-71
2022/04/15 11:15:18;;;;;;;3.08;0.70;;;18.60;99.90;;;;;;5071313;28;20193;-71
2022/04/15 11:17:55;;;;;;;1.83;0.65;;;18.60;99.90;;;;;;5071849;28;20189;-72
2022/04/15 11:20:27;;;;;;;2.38;0.85;;;18.60;99.90;;;;;;5072064;28;20247;-76
2022/04/15 11:22:58;;;;;;;2.67;0.70;;;18.60;99.90;;;;;;5071376;28;20192;-72
2022/04/15 11:25:28;;;;;;;2.13;0.60;;;18.60;99.90;;;;;;5071360;28;20193;-76
2022/04/15 11:28:07;;;;;;;2.85;0.95;;;18.60;99.90;;;;;;5071808;28;20258;-71
2022/04/15 11:30:38;;;;;;;3.38;0.70;;;18.70;99.90;;;;;;5060865;28;20189;-78
2022/04/15 11:33:11;;;;;;;3.03;0.90;;;18.70;99.90;;;;;;5067512;28;20198;-72
2022/04/15 11:35:41;;;;;;;2.33;0.70;;;18.70;99.90;;;;;;5069992;28;20221;-73
2022/04/15 11:38:13;;;;;;;3.17;0.93;;;18.60;99.90;;;;;;5070757;28;20204;-74
2022/04/15 11:40:46;;;;;;;3.25;0.80;;;18.60;99.90;;;;;;5071275;28;20197;-73
2022/04/15 11:43:16;;;;;;;1.45;0.77;;;18.60;99.90;;;;;;5074600;28;20189;-71
2022/04/15 11:45:47;;;;;;;3.20;1.10;;;18.60;99.90;;;;;;5075273;28;20192;-71
2022/04/15 11:48:21;;;;;;;1.85;0.90;;;18.60;99.90;;;;;;5071175;28;20228;-72
2022/04/15 11:50:53;;;;;;;3.45;1.40;;;18.50;99.90;;;;;;5075332;28;20231;-71
2022/04/15 11:53:24;;;;;;;2.55;1.30;;;18.50;99.90;;;;;;5074872;28;20217;-76
2022/04/15 11:55:55;;;;;;;2.83;1.50;;;18.50;99.90;;;;;;5075450;28;20197;-73
2022/04/15 11:58:27;;;;;;;3.33;1.73;;;18.50;99.90;;;;;;5074343;28;20181;-76
2022/04/15 12:00:59;;;;;;;3.72;1.70;;;18.40;99.90;;;;;;5073284;28;20181;-76
2022/04/15 12:03:32;;;;;;;3.45;1.80;;;18.40;99.90;;;;;;5075392;28;20193;-71
2022/04/15 12:06:03;;;;;;;4.20;1.77;;;18.40;99.90;;;;;;5075458;28;20539;-74
2022/04/15 12:08:35;;;;;;;3.05;1.30;;;18.40;99.90;;;;;;5075163;28;20216;-75
2022/04/15 12:11:06;;;;;;;1.70;1.33;;;18.40;99.90;;;;;;5075377;28;20210;-80
2022/04/15 12:13:37;;;;;;;3.28;1.67;;;18.40;99.90;;;;;;5074605;28;20197;-80
2022/04/15 12:16:10;;;;;;;2.45;1.48;;;18.30;99.90;;;;;;5074342;28;20189;-74
2022/04/15 12:18:46;;;;;;;3.70;1.50;;;18.30;99.90;;;;;;5071099;28;21407;-79
2022/04/15 12:21:23;;;;;;;2.33;1.40;;;18.30;99.90;;;;;;5067392;28;20632;-78
2022/04/15 12:24:13;;;;;;;3.72;1.52;;;18.30;99.90;;;;;;5069664;28;20553;-73
2022/04/15 12:26:47;;;;;;;3.80;1.58;;;18.20;99.90;;;;;;5069589;28;20198;-79
2022/04/15 12:32:25;;;;;;;4.85;1.80;;;18.10;99.90;;;;;;5071386;28;20790;-79
2022/04/15 12:35:18;;;;;;;2.72;1.45;;;18.10;99.90;;;;;;5057523;28;20591;-78
2022/04/15 12:38:17;;;;;;;;;;;;;;;;;;;;;
2022/04/15 12:41:06;;;;;;;3.15;1.90;;;18.00;99.90;;;;;;5064582;28;20193;-77
2022/04/15 12:43:39;;;;;;;4.05;1.90;;;17.90;99.90;;;;;;5064562;28;20189;-79
2022/04/15 12:46:21;;;;;;;4.93;2.17;;;18.00;99.90;;;;;;5074326;28;20193;-79
2022/04/15 12:49:00;;;;;;;3.58;1.80;;;18.00;99.90;;;;;;5068913;28;20308;-76
2022/04/15 12:51:45;;;;;;;4.05;1.77;;;18.00;99.90;;;;;;5074341;28;20200;-76
2022/04/15 12:54:16;;;;;;;5.28;2.83;;;17.90;99.90;;;;;;5064537;28;20228;-79
2022/04/15 12:56:59;;;;;;;4.22;2.45;;;17.90;99.90;;;;;;5072683;28;20204;-78
2022/04/15 12:59:36;;;;;;;4.90;2.90;;;17.90;99.90;;;;;;5066940;28;20189;-79
2022/04/15 13:02:10;;;;;;;5.50;2.72;;;17.90;99.90;;;;;;5073195;28;20283;-75
2022/04/15 13:04:50;;;;;;;4.57;2.40;;;17.90;99.90;;;;;;5071211;28;20180;-78
2022/04/15 13:07:28;;;;;;;4.38;2.30;;;17.80;99.90;;;;;;5069727;28;20656;-79
2022/04/15 13:10:00;;;;;;;4.38;2.40;;;17.80;99.90;;;;;;5070277;28;20239;-77
2022/04/15 13:12:32;;;;;;;5.30;2.40;;;17.70;99.90;;;;;;5071363;28;20204;-78
2022/04/15 13:15:04;;;;;;;4.57;2.55;;;17.80;99.90;;;;;;5068605;28;20185;-78
2022/04/15 13:17:38;;;;;;;5.20;2.35;;;17.70;99.90;;;;;;5068586;28;20189;-79
2022/04/15 13:20:18;;;;;;;5.38;2.15;;;17.80;99.90;;;;;;5069181;28;20200;-79
2022/04/15 13:22:51;;;;;;;5.68;2.47;;;17.70;99.90;;;;;;5070016;28;20197;-79